Terminal Aerodrome Forecast
Issued by NWS Huntsville, AL

Home | Current Version | Previous Version | Text Only | Print | Product List | Glossary On
Versions: 1 2 3 4 5 6 7 8 9 10 11 12 13 14 15 16 17 18 19 20 21 22 23 24 25 26 27 28 29 30
000
FTUS44 KHUN 181138
TAFMSL
TAF
KMSL 181138Z 1812/1912 19012G20KT P6SM OVC015
     FM181500 21020G30KT P6SM OVC015
     FM181800 21020G30KT P6SM VCSH BKN015 OVC025
     FM182200 23012G20KT 6SM SHRA BR VCTS BKN025CB OVC040
     FM190000 34020G30KT P6SM OVC015
     FM190400 34008G16KT P6SM BKN015=

USA.gov is the U.S. government's official web portal to all federal, state and local government web resources and services.